createdAt,value
2022-11-22T00:01:27.033Z,9.10
2022-11-22T00:03:57.504Z,10.20
2022-11-22T00:06:25.665Z,10.23
2022-11-22T00:08:53.759Z,10.00
2022-11-22T00:11:23.234Z,9.33
2022-11-22T00:13:51.460Z,9.57
2022-11-22T00:16:22.447Z,9.63
2022-11-22T00:18:50.692Z,9.30
2022-11-22T00:21:21.372Z,8.53
2022-11-22T00:23:49.491Z,9.70
2022-11-22T00:26:20.013Z,9.53
2022-11-22T00:28:52.113Z,8.63
2022-11-22T00:31:22.316Z,8.60
2022-11-22T00:33:50.499Z,8.83
2022-11-22T00:36:18.687Z,8.93
2022-11-22T00:38:46.962Z,8.23
2022-11-22T00:41:15.038Z,9.07
2022-11-22T00:43:43.246Z,9.87
2022-11-22T00:46:12.748Z,8.33
2022-11-22T00:48:41.052Z,8.17
2022-11-22T00:51:12.218Z,8.47
2022-11-22T00:53:40.369Z,8.50
2022-11-22T00:56:09.465Z,8.03
2022-11-22T00:58:37.565Z,8.43
2022-11-22T01:01:05.744Z,8.43
2022-11-22T01:03:35.228Z,8.00
2022-11-22T01:06:03.406Z,8.20
2022-11-22T01:08:31.521Z,7.90
2022-11-22T01:11:01.034Z,8.10
2022-11-22T01:13:30.724Z,7.83
2022-11-22T01:16:01.364Z,7.00
2022-11-22T01:18:29.721Z,7.87
2022-11-22T01:20:59.240Z,7.87
2022-11-22T01:23:27.547Z,7.23
2022-11-22T01:25:57.749Z,7.60
2022-11-22T01:28:25.887Z,7.33
2022-11-22T01:30:55.061Z,7.00
2022-11-22T01:33:25.518Z,6.70
2022-11-22T01:35:56.138Z,7.40
2022-11-22T01:38:25.623Z,7.53
2022-11-22T01:40:55.805Z,7.07
2022-11-22T01:43:29.085Z,7.37
2022-11-22T01:45:58.544Z,7.57
2022-11-22T01:48:45.019Z,6.40
2022-11-22T01:51:21.690Z,6.77
2022-11-22T01:53:55.348Z,7.80
2022-11-22T01:56:24.553Z,6.47
2022-11-22T01:58:57.911Z,6.37
2022-11-22T02:01:26.098Z,6.50
2022-11-22T02:03:55.967Z,6.70
2022-11-22T02:06:33.655Z,6.73
2022-11-22T02:09:08.534Z,6.70
2022-11-22T02:11:39.181Z,6.10
2022-11-22T02:14:09.289Z,6.10
2022-11-22T02:16:40.023Z,6.30
2022-11-22T02:19:14.394Z,7.40
2022-11-22T02:21:42.932Z,6.67
2022-11-22T02:24:18.953Z,7.00
2022-11-22T02:26:50.948Z,7.17
2022-11-22T02:29:21.985Z,6.33
2022-11-22T02:31:52.835Z,5.90
2022-11-22T02:34:23.341Z,6.63
2022-11-22T02:36:54.266Z,5.87
2022-11-22T02:39:29.436Z,6.97
2022-11-22T02:41:59.074Z,6.93
2022-11-22T02:44:29.298Z,6.17
2022-11-22T02:46:57.401Z,6.33
2022-11-22T02:49:28.562Z,6.60
2022-11-22T02:51:56.851Z,6.07
2022-11-22T02:54:24.969Z,5.70
2022-11-22T02:56:53.021Z,5.83
2022-11-22T02:59:22.551Z,5.40
2022-11-22T03:01:52.789Z,7.07
2022-11-22T03:04:26.086Z,6.33
2022-11-22T03:06:55.887Z,6.43
2022-11-22T03:09:27.421Z,6.23
2022-11-22T03:11:56.214Z,6.23
2022-11-22T03:14:26.015Z,6.47
2022-11-22T03:16:54.235Z,5.90
2022-11-22T03:19:24.613Z,6.33
2022-11-22T03:21:52.792Z,5.90
2022-11-22T03:24:21.180Z,5.73
2022-11-22T03:26:51.752Z,5.53
2022-11-22T03:29:22.416Z,5.53
2022-11-22T03:31:54.149Z,5.97
2022-11-22T03:34:22.357Z,5.27
2022-11-22T03:36:50.455Z,5.63
2022-11-22T03:39:18.571Z,5.80
2022-11-22T03:41:46.733Z,5.67
2022-11-22T03:44:14.978Z,5.37
2022-11-22T03:46:45.352Z,5.40
2022-11-22T03:49:14.958Z,5.40
2022-11-22T03:51:43.089Z,4.83
2022-11-22T03:54:11.354Z,4.40
2022-11-22T03:56:41.748Z,5.33
2022-11-22T03:59:11.936Z,4.90
2022-11-22T04:01:40.349Z,5.07
2022-11-22T04:04:08.441Z,5.00
2022-11-22T04:06:40.175Z,5.03
2022-11-22T04:09:08.536Z,5.10
2022-11-22T04:11:36.731Z,5.20
2022-11-22T04:14:22.523Z,4.53
2022-11-22T04:16:50.640Z,5.50
2022-11-22T04:19:18.747Z,4.93
2022-11-22T04:21:47.230Z,5.57
2022-11-22T04:24:32.824Z,5.47
2022-11-22T04:27:00.923Z,5.17
2022-11-22T04:29:31.766Z,5.60
2022-11-22T04:32:17.648Z,5.47
2022-11-22T04:34:45.872Z,5.67
2022-11-22T04:37:15.377Z,5.40
2022-11-22T04:39:43.533Z,5.20
2022-11-22T04:42:28.983Z,5.33
2022-11-22T04:44:57.234Z,4.63
2022-11-22T04:47:47.576Z,4.70
2022-11-22T04:50:35.956Z,4.93
2022-11-22T04:53:05.618Z,4.50
2022-11-22T04:55:33.964Z,5.23
2022-11-22T04:58:02.171Z,5.40
2022-11-22T05:00:30.966Z,5.30
2022-11-22T05:03:01.362Z,4.97
2022-11-22T05:05:29.649Z,4.70
2022-11-22T05:07:59.566Z,4.40
2022-11-22T05:10:29.295Z,4.90
2022-11-22T05:12:57.490Z,4.67
2022-11-22T05:15:25.701Z,4.47
2022-11-22T05:17:56.384Z,4.87
2022-11-22T05:20:24.490Z,4.40
2022-11-22T05:23:10.035Z,4.57
2022-11-22T05:25:39.647Z,4.00
2022-11-22T05:28:08.195Z,4.73
2022-11-22T05:30:40.096Z,3.73
2022-11-22T05:33:08.847Z,4.10
2022-11-22T05:35:36.974Z,4.47
2022-11-22T05:38:05.188Z,4.13
2022-11-22T05:40:35.868Z,3.37
2022-11-22T05:43:05.503Z,3.50
2022-11-22T05:45:34.852Z,3.50
2022-11-22T05:48:02.978Z,4.07
2022-11-22T05:50:31.074Z,3.53
2022-11-22T05:53:02.403Z,3.40
2022-11-22T05:55:32.615Z,4.50
2022-11-22T05:58:01.886Z,4.13
2022-11-22T06:00:33.963Z,3.97
2022-11-22T06:03:05.429Z,3.30
2022-11-22T06:05:34.322Z,3.27
2022-11-22T06:08:05.439Z,3.60
2022-11-22T06:10:37.202Z,3.67
2022-11-22T06:13:07.871Z,3.80
2022-11-22T06:15:37.407Z,3.43
2022-11-22T06:18:05.728Z,3.53
2022-11-22T06:20:36.129Z,4.90
2022-11-22T06:23:04.244Z,3.70
2022-11-22T06:25:33.306Z,3.80
2022-11-22T06:28:01.421Z,3.33
2022-11-22T06:30:29.510Z,3.80
2022-11-22T06:32:59.853Z,3.83
2022-11-22T06:35:27.929Z,3.63
2022-11-22T06:38:00.533Z,3.57
2022-11-22T06:40:29.025Z,3.73
2022-11-22T06:42:57.172Z,3.70
2022-11-22T06:45:25.370Z,3.93
2022-11-22T06:47:55.861Z,3.30
2022-11-22T06:50:25.305Z,3.20
2022-11-22T06:52:53.673Z,4.20
2022-11-22T06:55:49.193Z,3.73
2022-11-22T06:58:12.048Z,4.07
2022-11-22T07:00:40.178Z,4.03
2022-11-22T07:03:08.218Z,4.67
2022-11-22T07:05:37.648Z,4.30
2022-11-22T07:08:12.027Z,3.73
2022-11-22T07:10:41.653Z,3.97
2022-11-22T07:13:11.931Z,3.70
2022-11-22T07:15:40.126Z,4.20
2022-11-22T07:18:10.577Z,4.83
2022-11-22T07:20:42.267Z,6.30
2022-11-22T07:23:12.612Z,5.47
2022-11-22T07:25:44.269Z,4.83
2022-11-22T07:28:14.730Z,4.63
2022-11-22T07:30:44.394Z,4.63
2022-11-22T07:33:12.660Z,4.33
2022-11-22T07:35:42.201Z,4.53
2022-11-22T07:38:10.648Z,3.97
2022-11-22T07:40:38.757Z,4.67
2022-11-22T07:43:08.960Z,3.80
2022-11-22T07:45:37.186Z,3.77
2022-11-22T07:48:08.139Z,4.53
2022-11-22T07:50:36.269Z,4.20
2022-11-22T07:53:10.621Z,6.90
2022-11-22T07:55:38.750Z,5.43
2022-11-22T07:58:06.837Z,6.03
2022-11-22T08:00:35.113Z,5.63
2022-11-22T08:03:03.306Z,4.57
2022-11-22T08:05:31.400Z,5.13
2022-11-22T08:07:59.733Z,3.90
2022-11-22T08:10:29.292Z,3.30
2022-11-22T08:13:00.113Z,3.13
2022-11-22T08:15:30.202Z,3.53
2022-11-22T08:17:59.070Z,3.00
2022-11-22T08:20:27.210Z,3.00
2022-11-22T08:22:57.625Z,3.10
2022-11-22T08:25:25.776Z,3.70
2022-11-22T08:27:55.304Z,3.70
2022-11-22T08:30:23.405Z,3.93
2022-11-22T08:32:56.187Z,3.00
2022-11-22T08:35:24.764Z,3.67
2022-11-22T08:37:57.213Z,2.80
2022-11-22T08:40:25.422Z,3.33
2022-11-22T08:42:56.903Z,2.97
2022-11-22T08:45:25.002Z,3.23
2022-11-22T08:47:53.097Z,3.60
2022-11-22T08:50:21.203Z,3.03
2022-11-22T08:52:51.382Z,3.30
2022-11-22T08:55:21.864Z,3.20
2022-11-22T08:57:50.119Z,3.67
2022-11-22T09:00:19.926Z,4.90
2022-11-22T09:02:50.348Z,3.30
2022-11-22T09:05:18.481Z,3.63
2022-11-22T09:10:36.746Z,4.20
2022-11-22T09:13:04.969Z,3.40
2022-11-22T09:15:34.516Z,3.50
2022-11-22T09:18:03.308Z,3.93
2022-11-22T09:20:31.497Z,4.23
2022-11-22T09:23:01.760Z,3.77
2022-11-22T09:25:29.838Z,4.27
2022-11-22T09:28:01.016Z,4.27
2022-11-22T09:30:31.974Z,5.30
2022-11-22T09:33:01.419Z,4.57
2022-11-22T09:35:32.094Z,3.77
2022-11-22T09:38:03.462Z,3.10
2022-11-22T09:40:34.515Z,3.10
2022-11-22T09:43:15.411Z,2.77
2022-11-22T09:46:03.963Z,3.77
2022-11-22T09:48:47.194Z,3.23
2022-11-22T09:51:19.680Z,3.27
2022-11-22T09:53:54.141Z,2.50
2022-11-22T09:56:26.432Z,2.97
2022-11-22T09:58:58.342Z,2.43
2022-11-22T10:01:32.448Z,2.90
2022-11-22T10:04:06.347Z,2.40
2022-11-22T10:06:38.329Z,2.70
2022-11-22T10:09:19.679Z,3.30
2022-11-22T10:11:52.057Z,2.27
2022-11-22T10:14:31.089Z,3.03
2022-11-22T10:17:09.199Z,2.37
2022-11-22T10:19:44.559Z,2.27
2022-11-22T10:22:13.952Z,3.03
2022-11-22T10:24:44.911Z,2.37
2022-11-22T10:27:15.472Z,1.70
2022-11-22T10:29:52.796Z,1.90
2022-11-22T10:32:26.815Z,1.80
2022-11-22T10:35:23.317Z,2.10
2022-11-22T10:38:02.626Z,2.30
2022-11-22T10:40:41.904Z,4.50
2022-11-22T10:43:26.531Z,1.80
2022-11-22T10:46:02.112Z,2.03
2022-11-22T10:48:38.431Z,1.80
2022-11-22T10:51:20.490Z,2.03
2022-11-22T10:54:05.316Z,2.57
2022-11-22T10:56:44.283Z,2.30
2022-11-22T10:59:29.349Z,1.73
2022-11-22T11:02:03.437Z,1.53
2022-11-22T11:04:34.386Z,1.77
2022-11-22T11:07:13.112Z,1.60
2022-11-22T11:12:42.404Z,1.70
2022-11-22T11:15:19.293Z,1.50
2022-11-22T11:17:52.718Z,1.20
2022-11-22T11:20:24.698Z,1.77
2022-11-22T11:25:43.807Z,1.70
2022-11-22T11:28:19.639Z,1.50
2022-11-22T11:30:49.866Z,1.50
2022-11-22T11:33:21.621Z,1.50
2022-11-22T11:35:55.204Z,1.70
2022-11-22T11:38:36.208Z,1.30
2022-11-22T11:41:24.061Z,1.43
2022-11-22T11:43:53.634Z,1.30
2022-11-22T11:46:23.342Z,1.10
2022-11-22T11:48:52.457Z,1.43
2022-11-22T11:51:25.722Z,1.43
2022-11-22T11:54:02.337Z,2.10
2022-11-22T11:56:41.761Z,1.00
2022-11-22T11:59:15.508Z,1.33
2022-11-22T12:01:55.220Z,1.03
2022-11-22T12:04:28.509Z,1.73
2022-11-22T12:07:03.889Z,1.30
2022-11-22T12:09:43.775Z,1.20
2022-11-22T12:12:33.244Z,1.30
2022-11-22T12:15:13.193Z,1.67
2022-11-22T12:17:51.366Z,1.20
2022-11-22T12:20:27.118Z,1.30
2022-11-22T12:23:07.149Z,1.53
2022-11-22T12:25:41.177Z,1.60
2022-11-22T12:28:18.552Z,1.43
2022-11-22T12:30:50.685Z,3.40
2022-11-22T12:33:25.648Z,1.20
2022-11-22T12:35:56.419Z,1.80
2022-11-22T12:38:30.189Z,1.80
2022-11-22T12:41:05.949Z,1.97
2022-11-22T12:43:42.697Z,2.00
2022-11-22T12:46:15.066Z,1.60
2022-11-22T12:48:49.297Z,2.50
2022-11-22T12:51:25.922Z,1.40
2022-11-22T12:53:56.683Z,2.07
2022-11-22T12:56:33.661Z,1.10
2022-11-22T12:59:07.219Z,1.33
2022-11-22T13:01:44.683Z,1.40
2022-11-22T13:04:20.337Z,1.07
2022-11-22T13:06:58.585Z,1.10
2022-11-22T13:09:33.409Z,1.20
2022-11-22T13:12:07.310Z,0.80
2022-11-22T13:14:41.093Z,1.63
2022-11-22T13:17:10.419Z,1.43
2022-11-22T13:19:46.643Z,1.67
2022-11-22T13:22:22.434Z,1.97
2022-11-22T13:25:10.426Z,1.17
2022-11-22T13:27:44.887Z,1.37
2022-11-22T13:30:20.049Z,1.10
2022-11-22T13:32:51.745Z,1.10
2022-11-22T13:35:27.121Z,1.00
2022-11-22T13:37:58.136Z,0.93
2022-11-22T13:40:31.108Z,0.97
2022-11-22T13:43:50.292Z,0.83
2022-11-22T13:46:53.238Z,2.60
2022-11-22T13:49:47.941Z,1.17
2022-11-22T13:52:34.889Z,1.40
2022-11-22T13:55:26.984Z,0.93
2022-11-22T13:57:55.145Z,1.40
2022-11-22T14:00:48.553Z,1.33
2022-11-22T14:03:38.342Z,0.93
2022-11-22T14:06:31.435Z,1.13
2022-11-22T14:09:34.377Z,1.10
2022-11-22T14:12:19.192Z,1.13
2022-11-22T14:15:12.285Z,3.90
2022-11-22T14:17:51.233Z,1.70
2022-11-22T14:20:36.086Z,1.10
2022-11-22T14:23:13.442Z,1.30
2022-11-22T14:25:59.290Z,1.30
2022-11-22T14:29:00.346Z,1.30
2022-11-22T14:31:31.376Z,1.20
2022-11-22T14:34:18.666Z,1.10
2022-11-22T14:36:47.826Z,1.00
2022-11-22T14:39:53.616Z,1.30
2022-11-22T14:42:48.117Z,1.30
2022-11-22T14:45:23.597Z,0.80
2022-11-22T14:48:01.085Z,1.17
2022-11-22T14:50:35.039Z,0.90
2022-11-22T14:53:16.613Z,1.27
2022-11-22T14:55:44.993Z,0.93
2022-11-22T14:58:22.901Z,1.00
2022-11-22T15:01:20.761Z,1.13
2022-11-22T15:09:15.084Z,1.03
2022-11-22T15:09:23.224Z,1.07
2022-11-22T15:10:31.234Z,0.80
2022-11-22T15:13:24.452Z,0.60
2022-11-22T15:57:24.496Z,1.40
2022-11-22T15:59:55.901Z,1.20
2022-11-22T16:02:29.743Z,1.70
2022-11-22T16:06:11.283Z,1.03
2022-11-22T16:07:54.492Z,0.80
2022-11-22T16:10:24.480Z,0.70
2022-11-22T16:12:56.123Z,1.13
2022-11-22T16:15:28.498Z,1.13
2022-11-22T16:18:07.535Z,1.00
2022-11-22T16:20:37.120Z,1.13
2022-11-22T16:23:21.717Z,0.93
2022-11-22T16:25:56.093Z,1.23
2022-11-22T16:28:32.685Z,1.30
2022-11-22T16:31:06.441Z,1.50
2022-11-22T16:33:34.670Z,1.40
2022-11-22T16:36:05.770Z,0.97
2022-11-22T16:38:36.431Z,0.97
2022-11-22T16:41:06.167Z,0.70
2022-11-22T16:43:36.641Z,0.90
2022-11-22T16:46:05.526Z,0.90
2022-11-22T16:48:33.956Z,1.10
2022-11-22T16:51:07.141Z,0.80
2022-11-22T16:53:40.904Z,0.80
2022-11-22T16:56:10.154Z,1.10
2022-11-22T16:58:39.659Z,0.80
2022-11-22T17:01:10.162Z,1.20
2022-11-22T17:03:40.007Z,1.07
2022-11-22T17:06:08.708Z,1.50
2022-11-22T17:08:36.819Z,1.10
2022-11-22T17:11:04.976Z,1.30
2022-11-22T17:13:35.207Z,0.90
2022-11-22T17:16:08.175Z,1.03
2022-11-22T17:18:39.274Z,1.07
2022-11-22T17:21:14.977Z,1.17
2022-11-22T17:23:43.578Z,1.30
2022-11-22T17:26:11.967Z,1.10
2022-11-22T17:28:40.174Z,1.20
2022-11-22T17:31:14.181Z,1.17
2022-11-22T17:33:42.567Z,1.00
2022-11-22T17:36:20.517Z,1.00
2022-11-22T17:38:48.756Z,1.30
2022-11-22T17:41:17.232Z,1.43
2022-11-22T17:43:45.443Z,1.53
2022-11-22T17:46:17.442Z,1.20
2022-11-22T17:48:47.974Z,1.40
2022-11-22T17:51:16.063Z,1.43
2022-11-22T17:53:44.146Z,1.50
2022-11-22T17:56:12.597Z,2.97
2022-11-22T17:58:41.002Z,2.40
2022-11-22T18:01:11.497Z,4.10
2022-11-22T18:03:42.142Z,3.47
2022-11-22T18:06:13.747Z,2.40
2022-11-22T18:08:46.707Z,2.43
2022-11-22T18:11:18.006Z,2.07
2022-11-22T18:13:46.350Z,1.83
2022-11-22T18:16:18.242Z,1.60
2022-11-22T18:19:03.064Z,1.87
2022-11-22T18:21:33.958Z,2.17
2022-11-22T18:24:02.840Z,2.00
2022-11-22T18:26:39.455Z,1.97
2022-11-22T18:32:01.257Z,1.90
2022-11-22T18:34:32.824Z,1.50
2022-11-22T18:37:04.556Z,1.70
2022-11-22T18:39:35.953Z,1.93
2022-11-22T18:42:05.735Z,1.50
2022-11-22T18:44:34.069Z,1.83
2022-11-22T18:47:02.321Z,2.00
2022-11-22T18:49:34.337Z,2.00
2022-11-22T18:52:02.752Z,1.57
2022-11-22T18:54:33.634Z,2.10
2022-11-22T18:57:02.010Z,1.73
2022-11-22T18:59:31.216Z,1.60
2022-11-22T19:02:02.099Z,1.53
2022-11-22T19:04:34.016Z,1.93
2022-11-22T19:07:04.629Z,3.30
2022-11-22T19:09:32.774Z,8.37
2022-11-22T19:12:01.077Z,4.13
2022-11-22T19:14:30.007Z,2.60
2022-11-22T19:16:58.503Z,1.90
2022-11-22T19:19:32.184Z,2.47
2022-11-22T19:22:04.569Z,2.20
2022-11-22T19:24:33.360Z,2.20
2022-11-22T19:27:01.876Z,2.03
2022-11-22T19:29:30.378Z,1.63
2022-11-22T19:31:58.666Z,1.93
2022-11-22T19:34:30.250Z,1.90
2022-11-22T19:37:00.250Z,1.80
2022-11-22T19:39:30.240Z,2.10
2022-11-22T19:42:01.678Z,1.80
2022-11-22T19:44:32.233Z,1.83
2022-11-22T19:47:00.660Z,1.80
2022-11-22T19:49:31.401Z,1.37
2022-11-22T19:52:01.818Z,1.90
2022-11-22T19:54:31.317Z,2.00
2022-11-22T19:56:59.462Z,3.63
2022-11-22T19:59:30.107Z,1.80
2022-11-22T20:01:58.520Z,2.20
2022-11-22T20:04:26.768Z,1.87
2022-11-22T20:06:57.997Z,1.63
2022-11-22T20:09:29.240Z,1.70
2022-11-22T20:11:59.058Z,2.03
2022-11-22T20:14:27.215Z,1.83
2022-11-22T20:16:55.435Z,1.73
2022-11-22T20:19:23.627Z,1.53
2022-11-22T20:21:51.842Z,2.27
2022-11-22T20:24:20.213Z,1.80
2022-11-22T20:26:48.451Z,1.67
2022-11-22T20:29:23.037Z,1.97
2022-11-22T20:31:53.522Z,1.40
2022-11-22T20:34:21.842Z,1.80
2022-11-22T20:36:52.422Z,2.30
2022-11-22T20:39:22.922Z,1.60
2022-11-22T20:42:05.853Z,2.10
2022-11-22T20:44:40.734Z,2.50
2022-11-22T20:47:09.710Z,2.00
2022-11-22T20:49:42.390Z,2.40
2022-11-22T20:52:15.768Z,2.50
2022-11-22T20:54:44.169Z,2.60
2022-11-22T20:57:14.699Z,3.00
2022-11-22T20:59:46.873Z,3.57
2022-11-22T21:02:17.336Z,3.17
2022-11-22T21:04:47.756Z,4.57
2022-11-22T21:07:18.075Z,3.20
2022-11-22T21:09:48.525Z,3.37
2022-11-22T21:12:16.978Z,3.60
2022-11-22T21:14:49.287Z,3.83
2022-11-22T21:17:39.682Z,3.27
2022-11-22T21:20:11.363Z,3.10
2022-11-22T21:22:42.200Z,3.70
2022-11-22T21:25:12.555Z,2.97
2022-11-22T21:27:40.766Z,3.63
2022-11-22T21:30:11.662Z,2.77
2022-11-22T21:32:42.273Z,2.80
2022-11-22T21:35:11.224Z,2.90
2022-11-22T21:37:41.391Z,3.53
2022-11-22T21:40:10.845Z,2.70
2022-11-22T21:42:40.669Z,2.30
2022-11-22T21:45:11.155Z,2.60
2022-11-22T21:47:39.397Z,2.47
2022-11-22T21:50:11.773Z,2.17
2022-11-22T21:52:43.311Z,2.50
2022-11-22T21:55:12.032Z,2.63
2022-11-22T21:57:40.174Z,2.67
2022-11-22T22:00:11.671Z,2.70
2022-11-22T22:02:42.853Z,2.40
2022-11-22T22:05:11.417Z,2.20
2022-11-22T22:07:52.497Z,2.17
2022-11-22T22:10:23.356Z,2.30
2022-11-22T22:12:53.756Z,2.23
2022-11-22T22:15:23.283Z,2.00
2022-11-22T22:17:54.431Z,2.20
2022-11-22T22:20:22.988Z,2.00
2022-11-22T22:22:51.523Z,2.03
2022-11-22T22:25:20.046Z,2.10
2022-11-22T22:27:48.225Z,2.13
2022-11-22T22:30:18.970Z,2.20
2022-11-22T22:32:50.698Z,2.10
2022-11-22T22:35:20.898Z,1.70
2022-11-22T22:37:49.101Z,1.80
2022-11-22T22:40:19.660Z,1.80
2022-11-22T22:42:47.853Z,1.87
2022-11-22T22:45:16.156Z,1.50
2022-11-22T22:47:44.320Z,1.57
2022-11-22T22:50:13.820Z,1.80
2022-11-22T22:52:43.988Z,1.80
2022-11-22T22:55:14.274Z,1.77
2022-11-22T22:57:42.351Z,1.77
2022-11-22T23:00:13.712Z,1.53
2022-11-22T23:02:41.867Z,1.50
2022-11-22T23:05:14.400Z,1.83
2022-11-22T23:07:43.978Z,1.77
2022-11-22T23:10:12.475Z,1.50
2022-11-22T23:12:40.645Z,1.60
2022-11-22T23:15:09.676Z,1.67
2022-11-22T23:17:37.870Z,1.73
2022-11-22T23:20:08.840Z,1.27
2022-11-22T23:22:40.459Z,1.37
2022-11-22T23:25:11.112Z,1.60
2022-11-22T23:27:41.525Z,1.40
2022-11-22T23:30:10.957Z,1.40
2022-11-22T23:32:39.124Z,1.63
2022-11-22T23:35:08.350Z,1.67
2022-11-22T23:37:36.464Z,1.70
2022-11-22T23:40:07.163Z,1.40
2022-11-22T23:42:35.397Z,1.53
2022-11-22T23:45:03.652Z,1.30
2022-11-22T23:47:31.749Z,1.40
2022-11-22T23:49:59.813Z,1.60
2022-11-22T23:52:27.891Z,1.20
2022-11-22T23:54:56.059Z,1.20
2022-11-22T23:57:25.528Z,1.17
2022-11-22T23:59:53.610Z,1.50
